Time,TemperatureF,DewpointF,PressureIn,WindDirection,WindDirectionDegrees,WindSpeedMPH,WindSpeedGustMPH,Humidity,HourlyPrecipIn,Conditions,Clouds,dailyrainin,SoftwareType,DateUTC
2013-05-18 00:10:00,44.1,43.6,30.18,WSW,247,0.0,-999.0,98,-99.99,,,0.00,Acu-Link.com,2013-05-18 04:10:00,
2013-05-18 00:25:00,43.5,43.0,30.18,NNW,337,0.0,-999.0,98,-99.99,,,0.00,Acu-Link.com,2013-05-18 04:25:00,
2013-05-18 00:40:00,43.0,42.5,30.18,NE,45,0.0,-999.0,98,-99.99,,,0.00,Acu-Link.com,2013-05-18 04:40:00,
2013-05-18 00:55:00,42.4,41.9,30.19,WNW,292,0.0,-999.0,98,-99.99,,,0.00,Acu-Link.com,2013-05-18 04:55:00,
2013-05-18 01:10:00,42.1,41.6,30.19,NNE,22,0.0,-999.0,98,-99.99,,,0.00,Acu-Link.com,2013-05-18 05:10:00,
2013-05-18 01:25:00,41.7,41.2,30.19,NNW,337,0.0,-999.0,98,-99.99,,,0.00,Acu-Link.com,2013-05-18 05:25:00,
2013-05-18 01:40:00,41.4,40.9,30.19,NNE,22,0.0,-999.0,98,-99.99,,,0.00,Acu-Link.com,2013-05-18 05:40:00,
2013-05-18 01:55:00,41.0,40.5,30.19,NNW,337,0.0,-999.0,98,-99.99,,,0.00,Acu-Link.com,2013-05-18 05:55:00,
2013-05-18 02:11:00,41.0,40.5,30.19,NE,45,0.0,-999.0,98,-99.99,,,0.00,Acu-Link.com,2013-05-18 06:11:00,
2013-05-18 02:26:00,40.5,40.0,30.19,WNW,292,0.0,-999.0,98,-99.99,,,0.00,Acu-Link.com,2013-05-18 06:26:00,
2013-05-18 02:41:00,40.3,39.8,30.19,NNW,337,0.0,-999.0,98,-99.99,,,0.00,Acu-Link.com,2013-05-18 06:41:00,
2013-05-18 02:56:00,40.1,39.6,30.19,North,0,0.0,-999.0,98,-99.99,,,0.00,Acu-Link.com,2013-05-18 06:56:00,
2013-05-18 03:11:00,39.7,39.2,30.19,ENE,67,0.0,-999.0,98,-99.99,,,0.00,Acu-Link.com,2013-05-18 07:11:00,
2013-05-18 03:26:00,39.7,39.2,30.20,NNE,22,0.0,-999.0,98,-99.99,,,0.00,Acu-Link.com,2013-05-18 07:26:00,
2013-05-18 03:41:00,39.4,38.9,30.19,NW,315,0.0,-999.0,98,-99.99,,,0.00,Acu-Link.com,2013-05-18 07:41:00,
2013-05-18 03:57:00,39.2,38.7,30.20,NW,315,0.0,-999.0,98,-99.99,,,0.00,Acu-Link.com,2013-05-18 07:57:00,
2013-05-18 04:13:00,38.8,38.3,30.20,NNW,337,0.0,-999.0,98,-99.99,,,0.00,Acu-Link.com,2013-05-18 08:13:00,
2013-05-18 04:28:00,38.8,38.3,30.21,NNE,22,0.0,-999.0,98,-99.99,,,0.00,Acu-Link.com,2013-05-18 08:28:00,
2013-05-18 04:43:00,38.5,38.0,30.21,NE,45,0.0,-999.0,98,-99.99,,,0.00,Acu-Link.com,2013-05-18 08:43:00,
2013-05-18 04:58:00,37.9,37.4,30.22,NNW,337,0.0,-999.0,98,-99.99,,,0.00,Acu-Link.com,2013-05-18 08:58:00,
2013-05-18 05:13:00,37.6,37.1,30.22,NNW,337,0.0,-999.0,98,-99.99,,,0.00,Acu-Link.com,2013-05-18 09:13:00,
2013-05-18 05:28:00,37.6,37.1,30.23,NNE,22,0.0,-999.0,98,-99.99,,,0.00,Acu-Link.com,2013-05-18 09:28:00,
2013-05-18 05:43:00,37.6,37.1,30.24,NNW,337,0.0,-999.0,98,-99.99,,,0.00,Acu-Link.com,2013-05-18 09:43:00,
2013-05-18 05:58:00,37.8,37.3,30.24,SSE,157,0.0,-999.0,98,-99.99,,,0.00,Acu-Link.com,2013-05-18 09:58:00,
2013-05-18 06:14:00,38.5,38.0,30.25,NE,45,0.0,-999.0,98,-99.99,,,0.00,Acu-Link.com,2013-05-18 10:14:00,
2013-05-18 06:29:00,39.2,38.7,30.25,NE,45,0.0,-999.0,98,-99.99,,,0.00,Acu-Link.com,2013-05-18 10:29:00,
2013-05-18 06:44:00,40.3,39.8,30.25,NE,45,0.0,-999.0,98,-99.99,,,0.00,Acu-Link.com,2013-05-18 10:44:00,
2013-05-18 06:59:00,42.4,41.9,30.25,ENE,67,0.0,-999.0,98,-99.99,,,0.00,Acu-Link.com,2013-05-18 10:59:00,
2013-05-18 07:14:00,43.7,43.2,30.26,East,90,0.0,-999.0,98,-99.99,,,0.00,Acu-Link.com,2013-05-18 11:14:00,
2013-05-18 07:29:00,45.3,44.8,30.26,WNW,292,0.0,-999.0,98,-99.99,,,0.00,Acu-Link.com,2013-05-18 11:29:00,
2013-05-18 07:44:00,47.3,46.8,30.26,NE,45,1.7,-999.0,98,-99.99,,,0.00,Acu-Link.com,2013-05-18 11:44:00,
2013-05-18 07:59:00,49.8,49.3,30.26,South,180,0.0,-999.0,98,-99.99,,,0.00,Acu-Link.com,2013-05-18 11:59:00,
2013-05-18 08:14:00,52.0,48.9,30.26,NNE,22,0.0,-999.0,89,-99.99,,,0.00,Acu-Link.com,2013-05-18 12:14:00,
2013-05-18 08:30:00,54.5,51.3,30.26,West,270,0.0,-999.0,89,-99.99,,,0.00,Acu-Link.com,2013-05-18 12:30:00,
2013-05-18 08:45:00,56.5,51.7,30.26,North,0,1.1,-999.0,84,-99.99,,,0.00,Acu-Link.com,2013-05-18 12:45:00,
2013-05-18 09:00:00,59.4,52.2,30.26,SSW,202,1.1,-999.0,77,-99.99,,,0.00,Acu-Link.com,2013-05-18 13:00:00,
2013-05-18 09:15:00,62.6,53.8,30.26,NE,45,0.0,-999.0,73,-99.99,,,0.00,Acu-Link.com,2013-05-18 13:15:00,
2013-05-18 09:30:00,65.7,55.2,30.26,SSW,202,0.0,-999.0,69,-99.99,,,0.00,Acu-Link.com,2013-05-18 13:30:00,
2013-05-18 09:45:00,67.5,54.0,30.25,SSW,202,0.0,-999.0,62,-99.99,,,0.00,Acu-Link.com,2013-05-18 13:45:00,
2013-05-18 10:00:00,67.3,53.4,30.25,West,270,1.1,-999.0,61,-99.99,,,0.00,Acu-Link.com,2013-05-18 14:00:00,
2013-05-18 10:15:00,67.6,51.3,30.25,SSW,202,2.2,-999.0,56,-99.99,,,0.00,Acu-Link.com,2013-05-18 14:15:00,
2013-05-18 10:30:00,68.9,50.0,30.24,SSW,202,1.7,-999.0,51,-99.99,,,0.00,Acu-Link.com,2013-05-18 14:30:00,
2013-05-18 10:46:00,67.5,46.0,30.25,SSW,202,1.1,-999.0,46,-99.99,,,0.00,Acu-Link.com,2013-05-18 14:46:00,
2013-05-18 11:01:00,67.8,44.5,30.24,SSE,157,0.0,-999.0,43,-99.99,,,0.00,Acu-Link.com,2013-05-18 15:01:00,
2013-05-18 11:16:00,70.3,44.8,30.24,South,180,1.7,-999.0,40,-99.99,,,0.00,Acu-Link.com,2013-05-18 15:16:00,
2013-05-18 11:31:00,70.2,46.6,30.24,SSE,157,1.1,-999.0,43,-99.99,,,0.00,Acu-Link.com,2013-05-18 15:31:00,
2013-05-18 11:46:00,68.7,43.4,30.23,NNW,337,0.0,-999.0,40,-99.99,,,0.00,Acu-Link.com,2013-05-18 15:46:00,
2013-05-18 12:01:00,71.2,45.0,30.23,SW,225,0.0,-999.0,39,-99.99,,,0.00,Acu-Link.com,2013-05-18 16:01:00,
2013-05-18 12:16:00,70.0,47.1,30.22,WSW,247,1.1,-999.0,44,-99.99,,,0.00,Acu-Link.com,2013-05-18 16:16:00,
2013-05-18 12:31:00,72.5,46.8,30.22,ESE,112,0.0,-999.0,40,-99.99,,,0.00,Acu-Link.com,2013-05-18 16:31:00,
2013-05-18 12:46:00,70.3,43.5,30.21,NE,45,1.7,-999.0,38,-99.99,,,0.00,Acu-Link.com,2013-05-18 16:46:00,
2013-05-18 13:02:00,71.1,45.5,30.21,South,180,0.0,-999.0,40,-99.99,,,0.00,Acu-Link.com,2013-05-18 17:02:00,
2013-05-18 13:17:00,72.0,47.0,30.21,South,180,2.2,-999.0,41,-99.99,,,0.00,Acu-Link.com,2013-05-18 17:17:00,
2013-05-18 13:32:00,70.0,43.9,30.21,SSE,157,1.7,-999.0,39,-99.99,,,0.00,Acu-Link.com,2013-05-18 17:32:00,
2013-05-18 13:47:00,70.9,45.4,30.20,South,180,1.1,-999.0,40,-99.99,,,0.00,Acu-Link.com,2013-05-18 17:47:00,
2013-05-18 14:02:00,70.5,46.3,30.20,SSW,202,0.0,-999.0,42,-99.99,,,0.00,Acu-Link.com,2013-05-18 18:02:00,
2013-05-18 14:17:00,70.5,46.9,30.20,SW,225,2.7,-999.0,43,-99.99,,,0.00,Acu-Link.com,2013-05-18 18:17:00,
2013-05-18 14:32:00,69.4,48.8,30.20,SSW,202,0.0,-999.0,48,-99.99,,,0.00,Acu-Link.com,2013-05-18 18:32:00,
2013-05-18 14:47:00,70.3,48.5,30.19,South,180,0.0,-999.0,46,-99.99,,,0.00,Acu-Link.com,2013-05-18 18:47:00,
2013-05-18 15:02:00,69.8,49.2,30.19,NE,45,0.0,-999.0,48,-99.99,,,0.00,Acu-Link.com,2013-05-18 19:02:00,
2013-05-18 15:18:00,70.2,50.1,30.19,South,180,0.0,-999.0,49,-99.99,,,0.00,Acu-Link.com,2013-05-18 19:18:00,
2013-05-18 15:33:00,70.9,47.9,30.19,SW,225,0.0,-999.0,44,-99.99,,,0.00,Acu-Link.com,2013-05-18 19:33:00,
2013-05-18 15:48:00,70.3,49.1,30.19,ESE,112,0.0,-999.0,47,-99.99,,,0.00,Acu-Link.com,2013-05-18 19:48:00,
2013-05-18 16:03:00,70.2,47.3,30.19,SSW,202,0.0,-999.0,44,-99.99,,,0.00,Acu-Link.com,2013-05-18 20:03:00,
2013-05-18 16:18:00,69.6,49.0,30.19,SW,225,0.0,-999.0,48,-99.99,,,0.00,Acu-Link.com,2013-05-18 20:18:00,
2013-05-18 16:33:00,69.4,48.8,30.19,South,180,4.7,-999.0,48,-99.99,,,0.00,Acu-Link.com,2013-05-18 20:33:00,
2013-05-18 16:48:00,70.7,48.9,30.19,SSW,202,0.0,-999.0,46,-99.99,,,0.00,Acu-Link.com,2013-05-18 20:48:00,
2013-05-18 17:03:00,69.4,47.7,30.19,SSW,202,1.7,-999.0,46,-99.99,,,0.00,Acu-Link.com,2013-05-18 21:03:00,
2013-05-18 17:18:00,69.1,48.0,30.20,NNW,337,0.0,-999.0,47,-99.99,,,0.00,Acu-Link.com,2013-05-18 21:18:00,
2013-05-18 17:33:00,68.0,51.2,30.19,West,270,2.2,-999.0,55,-99.99,,,0.00,Acu-Link.com,2013-05-18 21:33:00,
2013-05-18 17:49:00,67.8,52.5,30.20,South,180,3.7,-999.0,58,-99.99,,,0.00,Acu-Link.com,2013-05-18 21:49:00,
2013-05-18 18:04:00,67.1,52.3,30.20,South,180,1.1,-999.0,59,-99.99,,,0.00,Acu-Link.com,2013-05-18 22:04:00,
2013-05-18 18:19:00,66.6,51.8,30.20,NW,315,2.7,-999.0,59,-99.99,,,0.00,Acu-Link.com,2013-05-18 22:19:00,
2013-05-18 18:34:00,65.7,51.9,30.20,SSE,157,2.7,-999.0,61,-99.99,,,0.00,Acu-Link.com,2013-05-18 22:34:00,
2013-05-18 18:49:00,65.1,51.8,30.20,SSW,202,2.7,-999.0,62,-99.99,,,0.00,Acu-Link.com,2013-05-18 22:49:00,
2013-05-18 19:04:00,64.6,52.1,30.21,NE,45,0.0,-999.0,64,-99.99,,,0.00,Acu-Link.com,2013-05-18 23:04:00,
2013-05-18 19:19:00,63.7,50.9,30.22,NE,45,2.2,-999.0,63,-99.99,,,0.00,Acu-Link.com,2013-05-18 23:19:00,
2013-05-18 19:34:00,62.6,49.4,30.22,SSW,202,2.2,-999.0,62,-99.99,,,0.00,Acu-Link.com,2013-05-18 23:34:00,
2013-05-18 19:49:00,61.7,49.4,30.22,SSW,202,0.0,-999.0,64,-99.99,,,0.00,Acu-Link.com,2013-05-18 23:49:00,
2013-05-18 20:05:00,60.8,49.4,30.23,South,180,1.1,-999.0,66,-99.99,,,0.00,Acu-Link.com,2013-05-19 00:05:00,
2013-05-18 20:20:00,60.3,49.3,30.23,WSW,247,0.0,-999.0,67,-99.99,,,0.00,Acu-Link.com,2013-05-19 00:20:00,
2013-05-18 20:35:00,59.5,49.7,30.23,ESE,112,0.0,-999.0,70,-99.99,,,0.00,Acu-Link.com,2013-05-19 00:35:00,
2013-05-18 20:50:00,58.8,49.8,30.24,SSE,157,0.0,-999.0,72,-99.99,,,0.00,Acu-Link.com,2013-05-19 00:50:00,
2013-05-18 21:05:00,58.1,49.5,30.24,WSW,247,0.0,-999.0,73,-99.99,,,0.00,Acu-Link.com,2013-05-19 01:05:00,
2013-05-18 21:20:00,57.6,50.1,30.24,South,180,1.1,-999.0,76,-99.99,,,0.00,Acu-Link.com,2013-05-19 01:20:00,
2013-05-18 21:35:00,57.0,49.9,30.25,SW,225,0.0,-999.0,77,-99.99,,,0.00,Acu-Link.com,2013-05-19 01:35:00,
2013-05-18 21:50:00,56.1,49.7,30.25,NW,315,0.0,-999.0,79,-99.99,,,0.00,Acu-Link.com,2013-05-19 01:50:00,
2013-05-18 22:05:00,55.0,49.3,30.25,NNE,22,0.0,-999.0,81,-99.99,,,0.00,Acu-Link.com,2013-05-19 02:05:00,
2013-05-18 22:21:00,54.1,49.4,30.26,NNE,22,0.0,-999.0,84,-99.99,,,0.00,Acu-Link.com,2013-05-19 02:21:00,
2013-05-18 22:36:00,53.2,49.1,30.26,WNW,292,0.0,-999.0,86,-99.99,,,0.00,Acu-Link.com,2013-05-19 02:36:00,
2013-05-18 22:51:00,52.3,48.9,30.26,WNW,292,0.0,-999.0,88,-99.99,,,0.00,Acu-Link.com,2013-05-19 02:51:00,
2013-05-18 23:06:00,51.6,48.5,30.26,West,270,0.0,-999.0,89,-99.99,,,0.00,Acu-Link.com,2013-05-19 03:06:00,
2013-05-18 23:21:00,50.7,47.9,30.25,South,180,0.0,-999.0,90,-99.99,,,0.00,Acu-Link.com,2013-05-19 03:21:00,
2013-05-18 23:36:00,49.6,47.7,30.26,ESE,112,0.0,-999.0,93,-99.99,,,0.00,Acu-Link.com,2013-05-19 03:36:00,
2013-05-18 23:51:00,48.7,48.2,30.27,NW,315,0.0,-999.0,98,-99.99,,,0.00,Acu-Link.com,2013-05-19 03:51:00,